Time,TemperatureF,DewpointF,PressureIn,WindDirection,WindDirectionDegrees,WindSpeedMPH,WindSpeedGustMPH,Humidity,HourlyPrecipIn,Conditions,Clouds,dailyrainin,SoftwareType,DateUTC
2014-03-04 00:12:00,-999.0,-99.9,-100.00,South,190,2.0,3.0,-999,-99.99,,,-99.99,,2014-03-04 05:12:00,
2014-03-04 00:43:00,-999.0,-99.9,-100.00,South,190,2.0,3.0,-999,-99.99,,,-99.99,,2014-03-04 05:43:00,
2014-03-04 00:53:00,-999.0,-99.9,-100.00,South,190,2.0,3.0,-999,-99.99,,,-99.99,,2014-03-04 05:53:00,
2014-03-04 01:02:00,-999.0,-99.9,-100.00,South,190,2.0,3.0,-999,-99.99,,,-99.99,,2014-03-04 06:02:00,
2014-03-04 01:42:00,-999.0,-99.9,-100.00,SSW,200,1.0,5.0,-999,-99.99,,,-99.99,,2014-03-04 06:42:00,
2014-03-04 01:52:00,-999.0,-99.9,-100.00,SSW,200,1.0,5.0,-999,-99.99,,,-99.99,,2014-03-04 06:52:00,
2014-03-04 02:02:00,-999.0,-99.9,-100.00,SSW,200,1.0,5.0,-999,-99.99,,,-99.99,,2014-03-04 07:02:00,
2014-03-04 02:11:00,-999.0,-99.9,-100.00,SSW,200,1.0,5.0,-999,-99.99,,,-99.99,,2014-03-04 07:11:00,
2014-03-04 04:12:00,-999.0,-99.9,-100.00,SSW,210,1.0,5.0,-999,-99.99,,,-99.99,,2014-03-04 09:12:00,
2014-03-04 04:43:00,-999.0,-99.9,-100.00,SSW,210,1.0,5.0,-999,-99.99,,,-99.99,,2014-03-04 09:43:00,
2014-03-04 04:53:00,-999.0,-99.9,-100.00,SSW,210,1.0,5.0,-999,-99.99,,,-99.99,,2014-03-04 09:53:00,
2014-03-04 05:03:00,-999.0,-99.9,-100.00,SSW,210,1.0,5.0,-999,-99.99,,,-99.99,,2014-03-04 10:03:00,
2014-03-04 05:12:00,-999.0,-99.9,-100.00,SW,230,2.0,9.0,-999,-99.99,,,-99.99,,2014-03-04 10:12:00,
2014-03-04 05:43:00,-999.0,-99.9,-100.00,SW,230,2.0,9.0,-999,-99.99,,,-99.99,,2014-03-04 10:43:00,
2014-03-04 05:53:00,-999.0,-99.9,-100.00,SW,230,2.0,9.0,-999,-99.99,,,-99.99,,2014-03-04 10:53:00,
2014-03-04 06:03:00,-999.0,-99.9,-100.00,SW,230,2.0,9.0,-999,-99.99,,,-99.99,,2014-03-04 11:03:00,
2014-03-04 06:12:00,-999.0,-99.9,-100.00,WSW,240,3.0,12.0,-999,-99.99,,,-99.99,,2014-03-04 11:12:00,
2014-03-04 06:43:00,-999.0,-99.9,-100.00,WSW,240,3.0,12.0,-999,-99.99,,,-99.99,,2014-03-04 11:43:00,
2014-03-04 06:52:00,-999.0,-99.9,-100.00,WSW,240,3.0,12.0,-999,-99.99,,,-99.99,,2014-03-04 11:52:00,
2014-03-04 07:02:00,-999.0,-99.9,-100.00,WSW,240,3.0,12.0,-999,-99.99,,,-99.99,,2014-03-04 12:02:00,
2014-03-04 07:42:00,-999.0,-99.9,-100.00,SW,230,1.0,12.0,-999,-99.99,,,-99.99,,2014-03-04 12:42:00,
2014-03-04 07:52:00,-999.0,-99.9,-100.00,SW,230,1.0,12.0,-999,-99.99,,,-99.99,,2014-03-04 12:52:00,
2014-03-04 08:02:00,-999.0,-99.9,-100.00,SW,230,1.0,12.0,-999,-99.99,,,-99.99,,2014-03-04 13:02:00,
2014-03-04 08:11:00,-999.0,-99.9,-100.00,SW,230,1.0,12.0,-999,-99.99,,,-99.99,,2014-03-04 13:11:00,
2014-03-04 08:12:00,-999.0,-99.9,-100.00,SW,230,1.0,12.0,-999,-99.99,,,-99.99,,2014-03-04 13:12:00,
2014-03-04 08:42:00,-999.0,-99.9,-100.00,SW,230,1.0,12.0,-999,-99.99,,,-99.99,,2014-03-04 13:42:00,
2014-03-04 08:53:00,-999.0,-99.9,-100.00,SW,230,1.0,12.0,-999,-99.99,,,-99.99,,2014-03-04 13:53:00,
2014-03-04 09:02:00,-999.0,-99.9,-100.00,SW,230,1.0,12.0,-999,-99.99,,,-99.99,,2014-03-04 14:02:00,
2014-03-04 09:12:00,-999.0,-99.9,-100.00,SW,220,3.0,10.0,-999,-99.99,,,-99.99,,2014-03-04 14:12:00,
2014-03-04 09:42:00,-999.0,-99.9,-100.00,SW,220,3.0,10.0,-999,-99.99,,,-99.99,,2014-03-04 14:42:00,
2014-03-04 09:53:00,-999.0,-99.9,-100.00,SW,220,3.0,10.0,-999,-99.99,,,-99.99,,2014-03-04 14:53:00,
2014-03-04 10:02:00,-999.0,-99.9,-100.00,SW,220,3.0,10.0,-999,-99.99,,,-99.99,,2014-03-04 15:02:00,
2014-03-04 10:12:00,-999.0,-99.9,-100.00,SSW,210,1.0,10.0,-999,-99.99,,,-99.99,,2014-03-04 15:12:00,
2014-03-04 10:43:00,-999.0,-99.9,-100.00,SSW,210,1.0,10.0,-999,-99.99,,,-99.99,,2014-03-04 15:43:00,
2014-03-04 10:54:00,-999.0,-99.9,-100.00,SSW,210,1.0,10.0,-999,-99.99,,,-99.99,,2014-03-04 15:54:00,
2014-03-04 11:04:00,-999.0,-99.9,-100.00,SSW,210,1.0,10.0,-999,-99.99,,,-99.99,,2014-03-04 16:04:00,
2014-03-04 12:12:00,-999.0,-99.9,-100.00,SSW,210,2.0,9.0,-999,-99.99,,,-99.99,,2014-03-04 17:12:00,
2014-03-04 12:43:00,-999.0,-99.9,-100.00,SSW,210,2.0,9.0,-999,-99.99,,,-99.99,,2014-03-04 17:43:00,
2014-03-04 12:53:00,-999.0,-99.9,-100.00,SSW,210,2.0,9.0,-999,-99.99,,,-99.99,,2014-03-04 17:53:00,
2014-03-04 13:02:00,-999.0,-99.9,-100.00,SSW,210,2.0,9.0,-999,-99.99,,,-99.99,,2014-03-04 18:02:00,
2014-03-04 13:43:00,-999.0,-99.9,-100.00,SSW,210,2.0,9.0,-999,-99.99,,,-99.99,,2014-03-04 18:43:00,
2014-03-04 13:52:00,-999.0,-99.9,-100.00,SSW,210,2.0,9.0,-999,-99.99,,,-99.99,,2014-03-04 18:52:00,
2014-03-04 14:02:00,-999.0,-99.9,-100.00,SSW,210,2.0,9.0,-999,-99.99,,,-99.99,,2014-03-04 19:02:00,
2014-03-04 14:11:00,-999.0,-99.9,-100.00,SSW,210,2.0,9.0,-999,-99.99,,,-99.99,,2014-03-04 19:11:00,
2014-03-04 14:42:00,-999.0,-99.9,-100.00,SSW,210,2.0,9.0,-999,-99.99,,,-99.99,,2014-03-04 19:42:00,
2014-03-04 14:52:00,-999.0,-99.9,-100.00,SSW,210,2.0,9.0,-999,-99.99,,,-99.99,,2014-03-04 19:52:00,
2014-03-04 15:02:00,-999.0,-99.9,-100.00,SSW,210,2.0,9.0,-999,-99.99,,,-99.99,,2014-03-04 20:02:00,
2014-03-04 15:12:00,-999.0,-99.9,-100.00,SSW,210,2.0,9.0,-999,-99.99,,,-99.99,,2014-03-04 20:12:00,
2014-03-04 22:12:00,-999.0,-99.9,-100.00,NNW,340,6.0,10.0,-999,-99.99,,,-99.99,,2014-03-05 03:12:00,
2014-03-04 22:43:00,-999.0,-99.9,-100.00,NNW,340,6.0,10.0,-999,-99.99,,,-99.99,,2014-03-05 03:43:00,
2014-03-04 22:54:00,-999.0,-99.9,-100.00,NNW,340,6.0,10.0,-999,-99.99,,,-99.99,,2014-03-05 03:54:00,
2014-03-04 23:03:00,-999.0,-99.9,-100.00,NNW,340,6.0,10.0,-999,-99.99,,,-99.99,,2014-03-05 04:03:00,
2014-03-04 23:12:00,-999.0,-99.9,-100.00,NW,320,5.0,9.0,-999,-99.99,,,-99.99,,2014-03-05 04:12:00,
2014-03-04 23:43:00,-999.0,-99.9,-100.00,NW,320,5.0,9.0,-999,-99.99,,,-99.99,,2014-03-05 04:43:00,
2014-03-04 23:53:00,-999.0,-99.9,-100.00,NW,320,5.0,9.0,-999,-99.99,,,-99.99,,2014-03-05 04:53:00,